Time;durP1;ratioP1;P1;durP2;ratioP2;P2;SDS_P1;SDS_P2;PMS_P1;PMS_P2;Temp;Humidity;BMP_temperature;BMP_pressure;BME280_temperature;BME280_humidity;BME280_pressure;Samples;Min_cycle;Max_cycle;Signal;HPM_P1;HPM_P2
2022/05/12 00:00:56;;;;;;;7.05;3.15;;;;;;;15.28;40.12;100138.94;1704540;83;21509;-86
2022/05/12 00:03:22;;;;;;;9.08;3.83;;;;;;;15.30;40.01;100139.00;1705848;83;21897;-86
2022/05/12 00:05:48;;;;;;;11.90;4.53;;;;;;;15.33;39.88;100139.06;1690661;84;21032;-71
2022/05/12 00:08:15;;;;;;;5.12;3.35;;;;;;;14.94;39.81;100074.06;1706068;83;21067;-83
2022/05/12 00:10:43;;;;;;;5.10;3.30;;;;;;;15.39;39.67;100144.91;1666998;84;21038;-79
2022/05/12 00:13:09;;;;;;;3.17;2.87;;;;;;;15.42;39.57;100144.97;1708436;83;21058;-69
2022/05/12 00:15:38;;;;;;;5.33;3.42;;;;;;;15.45;39.44;100143.19;1705230;83;21007;-84
2022/05/12 00:18:08;;;;;;;10.68;2.80;;;;;;;15.48;39.30;100142.21;1716380;83;21189;-89
2022/05/12 00:20:39;;;;;;;4.47;2.45;;;;;;;15.52;39.19;100144.73;1707502;83;21031;-90
2022/05/12 00:23:27;;;;;;;3.60;2.90;;;;;;;15.55;39.10;100143.45;1710968;83;21223;-72
2022/05/12 00:25:54;;;;;;;5.05;2.70;;;;;;;15.56;39.41;100138.39;1713240;79;21068;-89
2022/05/12 00:28:24;;;;;;;6.28;2.83;;;;;;;15.55;39.32;100138.08;1703818;83;21290;-87
2022/05/12 00:30:55;;;;;;;5.10;2.60;;;;;;;15.55;39.55;100140.77;1713072;83;21023;-89
2022/05/12 00:33:25;;;;;;;5.83;2.87;;;;;;;15.54;39.37;100143.17;1710088;83;21022;-78
2022/05/12 00:35:51;;;;;;;7.08;2.90;;;;;;;15.55;39.36;100140.77;1709350;84;21017;-84
2022/05/12 00:38:18;;;;;;;3.40;2.58;;;;;;;15.49;39.37;100129.59;1709501;83;21086;-77
2022/05/12 00:40:47;;;;;;;6.60;2.58;;;;;;;15.56;39.57;100142.42;1709497;82;21071;-88
2022/05/12 00:43:48;;;;;;;2.17;1.98;;;;;;;15.56;39.72;100140.55;1708213;83;21034;-89
2022/05/12 00:46:25;;;;;;;6.45;2.10;;;;;;;15.56;39.41;100137.05;1712227;83;20981;-67
2022/05/12 00:48:56;;;;;;;2.40;2.20;;;;;;;15.58;39.34;100141.67;1710524;83;21019;-76
2022/05/12 00:51:27;;;;;;;4.10;2.72;;;;;;;15.58;39.38;100141.67;1711803;82;21316;-70
2022/05/12 00:53:58;;;;;;;7.65;2.22;;;;;;;15.58;39.25;100134.95;1708282;80;21089;-89
2022/05/12 00:56:24;;;;;;;2.90;1.92;;;;;;;15.60;39.17;100134.20;1699657;79;20997;-68
2022/05/12 00:59:00;;;;;;;3.65;2.52;;;;;;;15.60;39.09;100134.20;1692809;84;21156;-68
2022/05/12 01:01:27;;;;;;;4.97;2.20;;;;;;;15.62;39.23;100131.30;1707253;82;21129;-88
2022/05/12 01:04:00;;;;;;;2.95;2.30;;;;;;;15.64;39.02;100131.89;1701935;82;21009;-90
2022/05/12 01:06:27;;;;;;;2.02;1.67;;;;;;;15.64;38.85;100131.89;1708480;82;21048;-90
2022/05/12 01:08:53;;;;;;;;;;;;;;;15.65;38.96;100128.98;1708825;82;21078;-88
2022/05/12 01:11:21;;;;;;;6.47;1.82;;;;;;;15.67;39.10;100127.38;1709593;82;20416;-89
2022/05/12 01:14:01;;;;;;;1.87;1.40;;;;;;;15.61;39.01;100128.30;1708960;83;21090;-90
2022/05/12 01:16:40;;;;;;;4.97;2.30;;;;;;;15.62;38.86;100124.05;1710878;84;21105;-87
2022/05/12 01:19:12;;;;;;;1.85;1.15;;;;;;;15.64;38.95;100125.98;1707030;84;20988;-89
2022/05/12 01:21:37;;;;;;;3.40;1.75;;;;;;;15.66;38.78;100121.73;1689511;84;21079;-89
2022/05/12 01:24:05;;;;;;;4.75;1.35;;;;;;;15.67;38.81;100116.14;1712352;82;21217;-69
2022/05/12 01:26:33;;;;;;;2.52;1.82;;;;;;;15.64;38.22;100114.42;1697227;82;21050;-72
2022/05/12 01:29:00;;;;;;;5.97;1.62;;;;;;;15.74;38.07;100127.63;1709519;84;21031;-78
2022/05/12 01:31:27;;;;;;;2.22;1.27;;;;;;;15.78;38.05;100121.27;1694863;84;21093;-83
2022/05/12 01:33:53;;;;;;;2.22;1.02;;;;;;;15.81;37.53;100114.11;1703890;84;21054;-83
2022/05/12 01:36:22;;;;;;;2.77;1.17;;;;;;;15.84;37.74;100119.04;1697867;84;21132;-90
2022/05/12 01:38:49;;;;;;;;;;;;;;;15.85;37.33;100117.97;1707562;84;21021;-82
2022/05/12 01:41:16;;;;;;;1.77;1.00;;;;;;;15.87;36.75;100112.38;1707082;84;20402;-76
2022/05/12 01:43:42;;;;;;;1.87;0.90;;;;;;;15.83;36.82;100116.58;1646838;81;21199;-69
2022/05/12 01:46:08;;;;;;;;;;;;;;;15.86;36.75;100116.09;1712801;81;21053;-85
2022/05/12 01:48:35;;;;;;;2.67;1.25;;;;;;;15.89;36.68;100112.97;1709732;83;20205;-87
2022/05/12 01:51:01;;;;;;;;;;;;;;;15.86;37.03;100112.06;1708763;84;21051;-84
2022/05/12 01:53:30;;;;;;;1.30;1.20;;;;;;;15.86;36.88;100114.75;1707437;82;20109;-85
2022/05/12 01:55:57;;;;;;;6.67;1.37;;;;;;;15.82;36.72;100115.73;1709895;83;21510;-84
2022/05/12 01:58:23;;;;;;;5.55;0.95;;;;;;;15.85;36.51;100117.16;1707349;83;21012;-86
2022/05/12 02:00:50;;;;;;;1.92;1.42;;;;;;;15.88;36.68;100111.31;1710507;83;21042;-89
2022/05/12 02:03:17;;;;;;;2.98;1.30;;;;;;;15.89;36.77;100108.40;1709666;83;21012;-86
2022/05/12 02:05:44;;;;;;;2.52;1.20;;;;;;;15.91;36.76;100108.17;1708935;83;21122;-86
2022/05/12 02:08:16;;;;;;;1.82;1.17;;;;;;;15.92;36.75;100114.67;1704580;83;21054;-87
2022/05/12 02:10:49;;;;;;;3.17;1.07;;;;;;;15.92;36.74;100112.52;1709741;83;21635;-80
2022/05/12 02:13:18;;;;;;;2.90;1.12;;;;;;;15.92;36.68;100109.30;1703246;84;21098;-83
2022/05/12 02:15:47;;;;;;;3.10;1.40;;;;;;;15.93;36.66;100107.42;1691781;83;21002;-69
2022/05/12 02:18:17;;;;;;;2.67;1.30;;;;;;;15.93;36.96;100108.77;1707258;83;21451;-88
2022/05/12 02:20:43;;;;;;;3.77;1.30;;;;;;;15.90;36.99;100106.02;1702296;83;21003;-85
2022/05/12 02:23:09;;;;;;;5.67;0.95;;;;;;;15.88;37.08;100109.97;1710976;83;21124;-88
2022/05/12 02:25:36;;;;;;;3.87;1.37;;;;;;;15.85;37.16;100106.41;1709664;82;20978;-71
2022/05/12 02:28:03;;;;;;;1.62;1.07;;;;;;;15.84;37.17;100108.29;1714846;80;21033;-83
2022/05/12 02:30:32;;;;;;;2.40;1.20;;;;;;;15.84;37.22;100111.48;1704919;84;21075;-89
2022/05/12 02:33:00;;;;;;;3.47;1.67;;;;;;;15.82;37.18;100114.39;1723033;82;21033;-79
2022/05/12 02:35:28;;;;;;;2.75;1.00;;;;;;;15.82;37.16;100116.27;1717023;82;21593;-89
2022/05/12 02:37:54;;;;;;;2.30;0.90;;;;;;;15.84;37.11;100116.35;1713036;79;21011;-72
2022/05/12 02:40:25;;;;;;;3.50;1.05;;;;;;;15.85;37.11;100113.13;1700175;81;21018;-86
2022/05/12 02:42:51;;;;;;;3.85;1.47;;;;;;;15.86;37.17;100110.72;1701025;84;21033;-89
2022/05/12 02:45:20;;;;;;;5.10;1.17;;;;;;;15.86;37.41;100113.41;1691715;82;21146;-88
2022/05/12 02:47:47;;;;;;;2.70;1.45;;;;;;;15.84;37.67;100110.98;1657615;84;21013;-88
2022/05/12 02:50:15;;;;;;;;;;;;;;;15.81;37.94;100108.73;1657199;84;21058;-80
2022/05/12 02:52:42;;;;;;;2.17;1.10;;;;;;;15.76;38.38;100112.13;1658424;84;20188;-89
2022/05/12 02:55:09;;;;;;;11.57;0.85;;;;;;;15.66;38.64;100111.80;1666243;82;21077;-91
2022/05/12 02:57:37;;;;;;;3.58;1.40;;;;;;;15.65;38.55;100107.98;1656472;85;21051;-87
2022/05/12 03:00:07;;;;;;;2.67;1.62;;;;;;;15.66;38.65;100108.30;1665092;85;21046;-77
2022/05/12 03:02:33;;;;;;;2.15;1.00;;;;;;;15.67;38.77;100111.27;1655913;85;20967;-89
2022/05/12 03:04:59;;;;;;;6.08;1.55;;;;;;;15.68;38.63;100113.73;1662392;85;21601;-90
2022/05/12 03:07:25;;;;;;;2.27;1.10;;;;;;;15.70;38.89;100110.83;1660973;85;21084;-88
2022/05/12 03:09:52;;;;;;;1.82;1.07;;;;;;;15.74;38.60;100114.72;1650171;85;21091;-89
2022/05/12 03:12:18;;;;;;;1.70;1.25;;;;;;;15.76;38.41;100113.97;1658787;85;21073;-76
2022/05/12 03:14:44;;;;;;;6.08;1.40;;;;;;;15.79;38.32;100113.52;1658031;85;21056;-91
2022/05/12 03:17:10;;;;;;;1.70;0.80;;;;;;;15.82;38.29;100111.70;1657354;85;21042;-89
2022/05/12 03:19:37;;;;;;;3.62;1.20;;;;;;;15.85;38.25;100111.25;1659041;85;21069;-71
2022/05/12 03:22:04;;;;;;;2.17;1.17;;;;;;;15.87;38.38;100117.22;1658400;85;21109;-83
2022/05/12 03:24:30;;;;;;;2.27;1.32;;;;;;;15.88;38.15;100110.81;1658020;85;21677;-90
2022/05/12 03:26:56;;;;;;;6.05;1.65;;;;;;;15.91;38.21;100111.67;1661387;85;21054;-89
2022/05/12 03:29:22;;;;;;;6.85;1.55;;;;;;;15.92;38.62;100111.98;1668085;85;21486;-89
2022/05/12 03:31:49;;;;;;;2.42;1.22;;;;;;;15.94;38.52;100111.77;1663912;85;21117;-90
2022/05/12 03:34:15;;;;;;;6.42;1.65;;;;;;;15.95;38.17;100108.01;1662894;85;21049;-78
2022/05/12 03:36:43;;;;;;;4.28;1.10;;;;;;;16.00;38.70;100106.80;1662750;85;21068;-86
2022/05/12 03:39:09;;;;;;;2.37;1.32;;;;;;;16.03;38.54;100107.70;1660669;85;21024;-88
2022/05/12 03:41:37;;;;;;;2.15;1.22;;;;;;;16.04;38.88;100099.10;1662661;85;21052;-89
2022/05/12 03:46:49;;;;;;;1.87;0.88;;;;;;;16.07;38.89;100103.50;1654541;85;21639;-89
2022/05/12 03:49:15;;;;;;;3.25;0.90;;;;;;;16.11;39.04;100105.20;1660883;85;22113;-85
2022/05/12 03:51:42;;;;;;;2.35;0.93;;;;;;;16.15;38.71;100105.03;1651718;85;21594;-90
2022/05/12 03:54:08;;;;;;;3.33;0.75;;;;;;;16.20;38.78;100105.67;1660286;85;21131;-89
2022/05/12 03:56:35;;;;;;;;;;;;;;;16.25;38.43;100100.42;1659199;85;21002;-91
2022/05/12 03:59:03;;;;;;;4.90;2.52;;;;;;;16.31;38.12;100102.18;1655119;85;20149;-83
2022/05/12 04:01:29;;;;;;;2.90;1.82;;;;;;;16.31;38.34;100103.52;1660580;85;21047;-91
2022/05/12 04:03:55;;;;;;;0.80;0.80;;;;;;;16.34;38.18;100092.31;1658654;85;20998;-88
2022/05/12 04:06:21;;;;;;;6.90;1.47;;;;;;;16.49;37.86;100102.09;1659747;85;21669;-85
2022/05/12 04:08:49;;;;;;;3.25;1.30;;;;;;;16.59;37.65;100095.31;1660964;85;21070;-84
2022/05/12 04:11:16;;;;;;;3.85;0.88;;;;;;;16.67;37.42;100093.60;1663137;84;21505;-87
2022/05/12 04:13:44;;;;;;;1.65;0.70;;;;;;;16.73;36.46;100094.03;1685050;84;21026;-85
2022/05/12 04:16:11;;;;;;;5.90;1.00;;;;;;;16.79;35.71;100091.73;1683825;84;21204;-89
2022/05/12 04:18:39;;;;;;;2.10;1.10;;;;;;;16.87;35.57;100095.97;1681298;84;22271;-76
2022/05/12 04:21:05;;;;;;;7.87;1.00;;;;;;;16.95;35.47;100095.59;1662822;85;21077;-83
2022/05/12 04:23:32;;;;;;;3.92;0.50;;;;;;;17.03;35.35;100087.72;1698963;82;21030;-89
2022/05/12 04:25:59;;;;;;;3.50;0.75;;;;;;;17.11;35.18;100088.14;1688958;85;21567;-85
2022/05/12 04:28:25;;;;;;;3.08;0.80;;;;;;;17.22;34.62;100092.41;1689155;84;21107;-75
2022/05/12 04:30:51;;;;;;;1.70;0.62;;;;;;;17.40;34.22;100091.41;1688585;85;21011;-87
2022/05/12 04:36:03;;;;;;;4.55;1.10;;;;;;;17.51;34.07;100095.41;1687098;85;20974;-85
2022/05/12 04:38:29;;;;;;;4.97;1.10;;;;;;;17.57;34.00;100098.20;1682958;84;21618;-87
2022/05/12 04:40:55;;;;;;;4.65;0.98;;;;;;;17.66;34.01;100094.87;1694344;83;21180;-69
2022/05/12 04:43:22;;;;;;;3.55;1.07;;;;;;;17.76;34.01;100081.30;1688265;81;21572;-68
2022/05/12 04:45:48;;;;;;;;;;;;;;;17.95;33.75;100103.50;1697413;80;21022;-84
2022/05/12 04:48:14;;;;;;;3.67;1.00;;;;;;;18.05;33.88;100095.61;1691528;85;20176;-88
2022/05/12 04:50:41;;;;;;;3.98;0.95;;;;;;;18.06;33.52;100106.16;1690238;85;21061;-82
2022/05/12 04:53:08;;;;;;;3.80;0.78;;;;;;;18.13;34.08;100099.24;1690780;81;20975;-71
2022/05/12 04:55:35;;;;;;;4.35;0.78;;;;;;;18.24;33.48;100102.94;1675838;85;21562;-89
2022/05/12 04:58:03;;;;;;;3.10;1.00;;;;;;;18.53;32.86;100101.49;1661571;85;21086;-80
2022/05/12 05:00:35;;;;;;;5.95;1.30;;;;;;;18.53;32.86;100101.49;1665280;86;21032;-88
2022/05/12 05:03:03;;;;;;;7.12;1.00;;;;;;;18.62;33.59;100095.97;1654348;85;22277;-85
2022/05/12 05:05:29;;;;;;;4.42;0.82;;;;;;;18.70;33.05;100094.19;1668068;85;21107;-87
2022/05/12 05:07:57;;;;;;;2.22;1.22;;;;;;;18.81;33.25;100097.89;1664030;85;21054;-90
2022/05/12 05:10:23;;;;;;;;;;;;;;;18.97;33.05;100099.73;1672850;85;21067;-82
2022/05/12 05:12:50;;;;;;;6.03;0.98;;;;;;;19.96;32.00;100094.38;1676554;84;20144;-88
2022/05/12 05:15:18;;;;;;;4.50;1.12;;;;;;;19.96;32.00;100094.38;1682190;84;21030;-89
2022/05/12 05:17:45;;;;;;;4.65;0.82;;;;;;;20.75;30.20;100086.08;1673329;84;21067;-83
2022/05/12 05:20:22;;;;;;;4.10;0.80;;;;;;;21.53;28.65;100083.47;1682148;84;20992;-87
2022/05/12 05:22:49;;;;;;;2.17;0.72;;;;;;;22.12;28.08;100081.37;1680033;84;21072;-88
2022/05/12 05:25:15;;;;;;;;;;;;;;;22.60;27.29;100080.52;1687156;84;22181;-91
2022/05/12 05:27:43;;;;;;;3.80;1.20;;;;;;;22.99;26.38;100079.88;1683644;84;20138;-78
2022/05/12 05:30:15;;;;;;;7.67;0.93;;;;;;;23.28;25.48;100073.80;1679374;84;21566;-86
2022/05/12 05:32:41;;;;;;;1.90;1.00;;;;;;;23.43;25.31;100068.84;1677714;84;21392;-84
2022/05/12 05:35:12;;;;;;;5.42;0.85;;;;;;;23.61;26.02;100064.11;1689483;83;20990;-82
2022/05/12 05:37:39;;;;;;;4.80;1.12;;;;;;;23.84;25.10;100060.45;1669336;85;21077;-70
2022/05/12 05:40:08;;;;;;;4.50;0.88;;;;;;;23.97;24.77;100057.08;1671992;84;20980;-82
2022/05/12 05:42:35;;;;;;;6.37;1.05;;;;;;;24.16;24.99;100059.91;1688271;84;21121;-86
2022/05/12 05:45:10;;;;;;;3.12;0.65;;;;;;;24.34;24.17;100055.68;1671681;84;21044;-73
2022/05/12 05:47:31;;;;;;;6.28;0.95;;;;;;;24.39;24.46;100054.28;1653461;85;21019;-72
2022/05/12 05:49:58;;;;;;;5.95;1.30;;;;;;;24.46;24.39;100053.92;1654178;82;21672;-84
2022/05/12 05:55:09;;;;;;;2.95;1.00;;;;;;;24.49;24.53;100039.73;1650994;85;21075;-76
2022/05/12 05:57:36;;;;;;;3.75;1.02;;;;;;;24.64;24.22;100030.62;1673881;85;21091;-72
2022/05/12 06:00:05;;;;;;;1.87;0.70;;;;;;;24.68;24.43;100032.46;1649194;85;21072;-73
2022/05/12 06:02:33;;;;;;;1.82;0.55;;;;;;;24.73;24.02;100023.96;1649441;82;21117;-70
2022/05/12 06:04:59;;;;;;;6.97;1.32;;;;;;;24.75;24.06;100027.20;1700298;83;21080;-78
2022/05/12 06:07:27;;;;;;;7.60;1.17;;;;;;;24.59;24.13;100028.75;1698856;83;21046;-77
2022/05/12 06:09:54;;;;;;;5.40;1.17;;;;;;;24.51;24.10;100025.83;1696300;83;21080;-92
2022/05/12 06:12:20;;;;;;;5.03;0.78;;;;;;;24.21;24.34;100022.31;1709296;83;21059;-90
2022/05/12 06:14:46;;;;;;;3.08;0.82;;;;;;;23.93;24.88;100023.37;1705173;83;21039;-78
2022/05/12 06:17:13;;;;;;;5.85;1.00;;;;;;;23.81;24.88;100012.86;1698166;83;20983;-90
2022/05/12 06:19:41;;;;;;;4.70;1.27;;;;;;;23.83;25.24;100013.37;1702763;83;21138;-82
2022/05/12 06:22:08;;;;;;;6.53;0.90;;;;;;;23.96;25.34;100005.11;1653616;85;21003;-86
2022/05/12 06:24:35;;;;;;;6.37;0.93;;;;;;;24.13;24.94;100006.58;1646491;85;21094;-90
2022/05/12 06:27:01;;;;;;;3.58;0.88;;;;;;;24.12;24.68;100003.05;1647777;85;21052;-87
2022/05/12 06:29:28;;;;;;;4.17;0.98;;;;;;;23.94;24.76;100007.31;1654698;85;21199;-84
2022/05/12 06:31:54;;;;;;;11.97;1.25;;;;;;;23.73;24.89;99960.35;1647335;83;21254;-71
2022/05/12 06:34:20;;;;;;;4.33;0.53;;;;;;;24.23;25.45;100001.86;1659980;85;21717;-79
2022/05/12 06:36:46;;;;;;;6.45;0.70;;;;;;;24.62;24.44;99996.01;1691833;80;84947;-91
2022/05/12 06:42:22;;;;;;;5.15;0.60;;;;;;;25.02;23.61;99978.91;1858984;76;22515;-90
2022/05/12 06:44:50;;;;;;;1.75;1.10;;;;;;;24.95;23.72;99979.25;1831340;76;21671;-89
2022/05/12 06:47:20;;;;;;;3.85;1.30;;;;;;;24.85;23.96;99986.22;1764253;79;21391;-88
2022/05/12 06:49:52;;;;;;;5.05;1.10;;;;;;;24.97;24.26;99984.42;1768892;80;21017;-88
2022/05/12 06:52:20;;;;;;;8.90;0.95;;;;;;;25.34;24.61;99978.77;1765824;78;21048;-88
2022/05/12 06:55:05;;;;;;;8.20;1.10;;;;;;;25.89;24.12;99976.78;1761065;79;21021;31
2022/05/12 06:57:32;;;;;;;3.12;0.88;;;;;;;26.55;23.11;99972.03;1621052;87;21594;-76
2022/05/12 06:59:59;;;;;;;3.25;0.57;;;;;;;26.84;22.54;99970.35;1597270;88;21097;-71
2022/05/12 07:02:29;;;;;;;3.10;0.90;;;;;;;26.86;22.50;99972.25;1628405;84;85037;-91
2022/05/12 07:05:00;;;;;;;4.58;0.80;;;;;;;27.01;22.92;99971.08;1627818;87;21038;-91
2022/05/12 07:07:28;;;;;;;4.62;0.75;;;;;;;27.28;22.18;99967.51;1671492;84;20986;-91
2022/05/12 07:09:58;;;;;;;5.47;1.22;;;;;;;27.37;22.44;99958.81;1668302;84;21105;-91
2022/05/12 07:12:26;;;;;;;6.47;0.90;;;;;;;27.45;22.50;99964.09;1656787;84;21033;-91
2022/05/12 07:14:58;;;;;;;2.83;0.55;;;;;;;27.54;22.67;99962.80;1669511;84;21002;-92
2022/05/12 07:17:25;;;;;;;4.78;0.98;;;;;;;27.57;22.64;99959.42;1669364;84;21040;-93
2022/05/12 07:28:23;;;;;;;3.25;0.85;;;;;;;27.48;23.15;99953.08;1682557;84;21023;-92
2022/05/12 07:31:06;;;;;;;3.15;0.72;;;;;;;27.47;23.14;99949.54;1641095;82;21144;-89
2022/05/12 07:33:51;;;;;;;4.80;0.70;;;;;;;27.47;22.87;99952.84;1676782;82;21033;-92
2022/05/12 07:36:29;;;;;;;3.55;0.70;;;;;;;27.28;23.26;99925.66;1643130;85;21031;-88
2022/05/12 07:38:58;;;;;;;0.95;0.72;;;;;;;27.39;23.13;99944.83;1635396;82;21080;-90
2022/05/12 07:41:27;;;;;;;4.40;0.70;;;;;;;27.36;23.21;99947.60;1630819;87;21010;-90
2022/05/12 07:43:57;;;;;;;2.08;0.98;;;;;;;27.39;23.47;99936.61;1645174;86;21114;-89
2022/05/12 07:46:29;;;;;;;2.15;0.70;;;;;;;27.37;23.57;99940.22;1684655;84;21110;-90
2022/05/12 07:48:58;;;;;;;5.75;0.80;;;;;;;27.28;23.64;99936.05;1667509;84;21022;-90
2022/05/12 07:51:27;;;;;;;4.28;1.30;;;;;;;27.18;24.23;99928.03;1667800;84;21002;-90
2022/05/12 07:53:54;;;;;;;2.62;0.88;;;;;;;27.15;24.75;99928.66;1668485;84;21045;-89
2022/05/12 07:56:28;;;;;;;4.78;1.27;;;;;;;27.13;24.84;99925.43;1672561;84;21073;-88
2022/05/12 07:58:59;;;;;;;3.22;1.02;;;;;;;27.12;25.13;99921.06;1656279;85;21047;-90
2022/05/12 08:01:29;;;;;;;2.58;1.37;;;;;;;27.04;25.37;99916.34;1694791;82;21097;-88
2022/05/12 08:04:01;;;;;;;3.20;1.10;;;;;;;26.95;25.44;99914.32;1684971;82;21008;-89
2022/05/12 08:06:31;;;;;;;7.05;1.30;;;;;;;26.86;26.00;99909.90;1705769;82;22395;-89
2022/05/12 08:08:57;;;;;;;3.65;0.98;;;;;;;26.75;26.25;99912.07;1709072;82;21487;-90
2022/05/12 08:11:27;;;;;;;2.87;1.00;;;;;;;26.67;26.51;99907.30;1698419;82;21041;-89
2022/05/12 08:13:56;;;;;;;3.02;1.02;;;;;;;26.71;26.48;99907.77;1682215;84;21004;-92
2022/05/12 08:16:27;;;;;;;5.83;1.70;;;;;;;26.83;26.57;99903.13;1665904;84;21128;-90
2022/05/12 08:18:53;;;;;;;5.70;1.55;;;;;;;26.85;26.56;99892.69;1684094;84;20975;-90
2022/05/12 08:21:23;;;;;;;1.87;1.10;;;;;;;26.82;26.50;99893.86;1683871;84;21035;-88
2022/05/12 08:23:53;;;;;;;1.47;0.82;;;;;;;26.78;26.81;99894.47;1693023;82;85257;-69
2022/05/12 08:26:20;;;;;;;5.53;1.47;;;;;;;26.84;26.98;99891.63;1714302;82;21031;-71
2022/05/12 08:28:49;;;;;;;2.17;0.78;;;;;;;26.91;27.00;99891.45;1715681;82;21115;-71
2022/05/12 08:31:15;;;;;;;5.05;1.30;;;;;;;26.98;26.90;99886.37;1714008;82;22412;-71
2022/05/12 08:33:41;;;;;;;6.03;1.47;;;;;;;27.07;26.88;99888.35;1707934;82;21048;-71
2022/05/12 08:36:10;;;;;;;6.47;1.47;;;;;;;27.10;26.92;99883.08;1722736;82;21004;-72
2022/05/12 08:38:40;;;;;;;1.80;0.82;;;;;;;27.09;26.92;99886.14;1723390;82;21063;-73
2022/05/12 08:41:43;;;;;;;3.05;1.40;;;;;;;27.10;27.30;99882.27;1717493;82;20981;-73
2022/05/12 08:44:16;;;;;;;2.62;1.62;;;;;;;27.15;27.39;99872.59;1719091;82;21095;-72
2022/05/12 08:46:49;;;;;;;3.20;1.85;;;;;;;27.26;27.62;99875.35;1714503;82;21028;-74
2022/05/12 08:49:30;;;;;;;3.42;1.55;;;;;;;27.31;27.33;99862.92;1718905;82;21088;-72
2022/05/12 08:52:16;;;;;;;2.20;1.65;;;;;;;27.43;27.33;99868.39;1714155;82;21179;-77
2022/05/12 08:55:15;;;;;;;1.55;1.00;;;;;;;27.47;27.18;99866.64;1715683;82;21041;-71
2022/05/12 08:58:04;;;;;;;6.80;2.02;;;;;;;27.59;27.25;99864.11;1715551;82;21517;-75
2022/05/12 09:00:41;;;;;;;2.33;1.47;;;;;;;27.72;27.18;99859.11;1712575;82;21051;-73
2022/05/12 09:03:10;;;;;;;;;;;;;;;27.81;27.01;99855.62;1717637;82;21010;-73
2022/05/12 09:06:00;;;;;;;4.87;1.10;;;;;;;27.83;27.01;99858.84;1711812;82;20213;-71
2022/05/12 09:08:57;;;;;;;4.20;1.52;;;;;;;27.83;27.31;99854.73;1716942;82;21394;-72
2022/05/12 09:11:41;;;;;;;2.12;1.02;;;;;;;27.88;27.06;99859.52;1728382;82;20995;-72
2022/05/12 09:14:12;;;;;;;3.15;1.40;;;;;;;27.91;26.85;99850.67;1712040;82;21128;-71
2022/05/12 09:16:41;;;;;;;6.47;1.95;;;;;;;27.92;26.63;99846.03;1719361;82;21147;-71
2022/05/12 09:19:11;;;;;;;3.30;1.22;;;;;;;27.88;26.86;99839.55;1718309;82;21044;-72
2022/05/12 09:21:42;;;;;;;8.35;1.70;;;;;;;27.83;26.95;99823.25;1717107;82;21856;-72
2022/05/12 09:24:08;;;;;;;5.70;1.95;;;;;;;27.83;26.94;99825.41;1718997;82;21179;-70
2022/05/12 09:27:06;;;;;;;9.05;2.05;;;;;;;27.91;27.05;99828.77;1690121;84;21073;-70
2022/05/12 09:29:51;;;;;;;6.62;1.47;;;;;;;27.94;26.89;99824.03;1686162;84;20989;-72
2022/05/12 09:32:32;;;;;;;8.78;1.22;;;;;;;27.88;27.09;99816.27;1686381;84;21075;-71
2022/05/12 09:35:24;;;;;;;4.95;1.42;;;;;;;27.90;27.15;99822.27;1697161;83;21036;-71
2022/05/12 09:37:52;;;;;;;3.70;1.37;;;;;;;27.92;27.27;99814.53;1733262;81;21055;-71
2022/05/12 09:40:35;;;;;;;2.70;1.00;;;;;;;27.99;27.22;99809.41;1712029;82;21091;-71
2022/05/12 09:43:26;;;;;;;5.17;1.02;;;;;;;28.08;27.08;99808.84;1691087;82;22340;-71
2022/05/12 09:46:20;;;;;;;1.42;1.35;;;;;;;28.15;26.96;99803.70;1695066;83;21038;-73
2022/05/12 09:48:50;;;;;;;5.55;1.45;;;;;;;28.22;26.99;99796.39;1707880;82;21033;-74
2022/05/12 09:51:32;;;;;;;3.87;1.65;;;;;;;28.30;26.90;99788.73;1734103;81;20983;-71
2022/05/12 09:54:29;;;;;;;6.75;1.92;;;;;;;28.39;26.41;99783.28;1706928;82;21073;-70
2022/05/12 09:57:03;;;;;;;3.35;1.52;;;;;;;28.38;26.34;99785.77;1711288;82;21060;-72
2022/05/12 09:59:32;;;;;;;6.37;1.60;;;;;;;28.38;26.57;99776.17;1735673;81;20985;-72
2022/05/12 10:02:04;;;;;;;4.05;1.67;;;;;;;28.39;26.35;99772.31;1707938;82;21028;-75
2022/05/12 10:10:14;;;;;;;4.25;1.52;;;;;;;28.29;26.56;99763.02;1710262;82;21348;-70
2022/05/12 10:13:03;;;;;;;5.75;2.25;;;;;;;28.33;26.68;99766.73;1738715;80;21492;-73
2022/05/12 10:15:36;;;;;;;2.95;1.55;;;;;;;28.44;26.50;99752.95;1708641;81;21005;-74
2022/05/12 10:18:32;;;;;;;10.82;1.80;;;;;;;28.47;26.34;99752.31;1706568;82;21047;-71
2022/05/12 10:21:04;;;;;;;4.47;1.57;;;;;;;28.51;26.31;99746.42;1736782;81;21101;-70
2022/05/12 10:23:48;;;;;;;4.83;1.45;;;;;;;28.59;25.99;99744.03;1694764;82;21572;-73
2022/05/12 10:26:26;;;;;;;9.05;1.57;;;;;;;28.64;26.15;99728.80;1729750;81;21000;-73
2022/05/12 10:29:13;;;;;;;4.28;1.22;;;;;;;28.64;25.63;99738.39;1705831;82;21048;-72
2022/05/12 10:32:08;;;;;;;9.40;2.30;;;;;;;28.66;25.60;99725.97;1706606;82;21026;-71
2022/05/12 10:35:08;;;;;;;4.87;1.85;;;;;;;28.74;25.34;99722.97;1734746;81;21053;-73
2022/05/12 10:38:06;;;;;;;14.47;2.15;;;;;;;28.77;25.32;99718.78;1732900;81;21045;-73
2022/05/12 10:40:46;;;;;;;10.85;1.47;;;;;;;28.71;25.29;99711.30;1731609;81;21096;-71
2022/05/12 10:43:27;;;;;;;10.23;1.50;;;;;;;28.67;25.26;99718.53;1733713;81;20948;-71
2022/05/12 10:46:04;;;;;;;4.15;1.47;;;;;;;28.68;25.67;99711.36;1730465;80;21058;-71
2022/05/12 10:48:49;;;;;;;3.37;1.40;;;;;;;28.68;25.75;99709.20;1730276;81;21143;-74
2022/05/12 10:51:44;;;;;;;3.80;1.02;;;;;;;28.64;25.57;99692.59;1706688;82;21508;-72
2022/05/12 10:54:39;;;;;;;14.28;2.35;;;;;;;28.58;25.41;99683.50;1734587;81;21064;-73
2022/05/12 10:57:17;;;;;;;3.95;1.22;;;;;;;28.55;25.45;99689.05;1706475;82;20996;-70
2022/05/12 11:00:04;;;;;;;5.80;1.55;;;;;;;28.59;25.45;99696.06;1736367;81;21063;-70
2022/05/12 11:02:58;;;;;;;5.42;1.55;;;;;;;28.62;25.57;99690.73;1732351;81;21226;-72
2022/05/12 11:05:38;;;;;;;3.75;1.37;;;;;;;28.67;25.62;99682.34;1696137;83;21022;-70
2022/05/12 11:08:21;;;;;;;8.18;1.92;;;;;;;28.64;25.61;99670.65;1729432;81;21495;-68
2022/05/12 11:11:08;;;;;;;8.20;2.08;;;;;;;28.59;25.71;99662.59;1738542;81;21152;-73
2022/05/12 11:13:47;;;;;;;9.18;1.47;;;;;;;28.50;25.50;99655.74;1735030;81;21563;-71
2022/05/12 11:16:25;;;;;;;2.80;1.10;;;;;;;28.46;25.74;99658.06;1737166;81;20997;-72
2022/05/12 11:19:20;;;;;;;2.85;1.50;;;;;;;28.48;25.77;99657.17;1733296;81;21022;-71
2022/05/12 11:22:10;;;;;;;15.43;1.70;;;;;;;28.49;25.80;99654.69;1718565;82;20997;-73
2022/05/12 11:24:58;;;;;;;1.82;0.98;;;;;;;28.50;25.76;99651.63;1672921;83;21092;-73
2022/05/12 11:27:50;;;;;;;6.85;1.60;;;;;;;28.53;25.79;99650.98;1744458;81;21030;-72
2022/05/12 11:30:34;;;;;;;5.90;1.72;;;;;;;28.54;26.00;99643.59;1733014;81;21967;-73
2022/05/12 11:33:38;;;;;;;4.97;1.45;;;;;;;28.58;26.05;99646.49;1728052;81;21087;-74
2022/05/12 11:36:09;;;;;;;6.33;1.60;;;;;;;28.69;26.09;99632.67;1705911;82;21596;-71
2022/05/12 11:38:42;;;;;;;26.40;2.45;;;;;;;28.78;25.89;99629.31;1731553;81;21110;-71
2022/05/12 11:41:35;;;;;;;9.53;1.72;;;;;;;28.86;25.61;99635.35;1703219;82;21068;-71
2022/05/12 11:44:26;;;;;;;8.40;1.77;;;;;;;28.90;25.38;99622.59;1737562;81;20997;-73
2022/05/12 11:47:18;;;;;;;6.28;1.82;;;;;;;28.93;24.89;99630.17;1739162;81;21105;-72
2022/05/12 11:50:27;;;;;;;4.60;1.20;;;;;;;28.91;24.84;99607.75;1733826;81;21060;-69
2022/05/12 11:53:17;;;;;;;8.88;1.62;;;;;;;28.86;24.87;99606.55;1732935;81;21135;-72
2022/05/12 11:56:09;;;;;;;11.30;1.70;;;;;;;28.87;25.21;99591.69;1733486;81;21034;-71
2022/05/12 11:58:48;;;;;;;6.70;1.37;;;;;;;28.86;25.39;99600.27;1716096;82;21042;-71
2022/05/12 12:01:27;;;;;;;6.97;1.70;;;;;;;28.86;25.44;99596.95;1733852;81;21035;-72
2022/05/12 12:04:01;;;;;;;1.72;0.90;;;;;;;28.87;25.12;99580.72;1720915;82;21068;-70
2022/05/12 12:06:41;;;;;;;7.47;1.55;;;;;;;28.86;25.36;99597.53;1727580;81;21476;-71
2022/05/12 12:09:39;;;;;;;12.13;1.90;;;;;;;28.89;25.00;99581.19;1737764;81;21003;-71
2022/05/12 12:12:10;;;;;;;3.02;1.47;;;;;;;28.90;24.77;99574.59;1725337;81;20984;-71
2022/05/12 12:14:52;;;;;;;7.67;1.62;;;;;;;28.89;24.92;99572.97;1698445;83;21050;-73
2022/05/12 12:17:41;;;;;;;6.78;1.22;;;;;;;28.89;25.01;99563.36;1733037;81;21131;-72
2022/05/12 12:20:14;;;;;;;5.47;1.80;;;;;;;28.87;24.96;99557.98;1727817;81;21558;-73
2022/05/12 12:22:48;;;;;;;7.50;2.12;;;;;;;28.80;25.08;99546.72;1718282;82;21507;-73